sensor_id;sensor_type;location;lat;lon;timestamp;P1;durP1;ratioP1;P2;durP2;ratioP2
3901;SDS011;1966;49.908;9.156;2023-05-19T00:01:34;4.23;;;2.63;;
3901;SDS011;1966;49.908;9.156;2023-05-19T00:06:35;5.10;;;2.67;;
3901;SDS011;1966;49.908;9.156;2023-05-19T00:11:36;4.80;;;2.37;;
3901;SDS011;1966;49.908;9.156;2023-05-19T00:16:36;6.23;;;2.60;;
3901;SDS011;1966;49.908;9.156;2023-05-19T00:21:36;2.70;;;2.30;;
3901;SDS011;1966;49.908;9.156;2023-05-19T00:26:37;5.20;;;3.00;;
3901;SDS011;1966;49.908;9.156;2023-05-19T00:31:36;6.50;;;3.10;;
3901;SDS011;1966;49.908;9.156;2023-05-19T00:36:36;4.33;;;2.63;;
3901;SDS011;1966;49.908;9.156;2023-05-19T00:41:35;3.80;;;2.50;;
3901;SDS011;1966;49.908;9.156;2023-05-19T00:46:35;3.97;;;3.00;;
3901;SDS011;1966;49.908;9.156;2023-05-19T00:51:35;3.77;;;2.90;;
3901;SDS011;1966;49.908;9.156;2023-05-19T00:56:35;6.30;;;3.07;;
3901;SDS011;1966;49.908;9.156;2023-05-19T01:01:35;7.33;;;3.20;;
3901;SDS011;1966;49.908;9.156;2023-05-19T01:06:34;3.97;;;2.90;;
3901;SDS011;1966;49.908;9.156;2023-05-19T01:11:34;5.77;;;3.53;;
3901;SDS011;1966;49.908;9.156;2023-05-19T01:16:35;3.03;;;2.70;;
3901;SDS011;1966;49.908;9.156;2023-05-19T01:21:53;4.90;;;3.00;;
3901;SDS011;1966;49.908;9.156;2023-05-19T01:27:03;6.20;;;4.43;;
3901;SDS011;1966;49.908;9.156;2023-05-19T01:32:06;8.00;;;5.20;;
3901;SDS011;1966;49.908;9.156;2023-05-19T01:37:07;9.60;;;6.17;;
3901;SDS011;1966;49.908;9.156;2023-05-19T01:42:07;7.87;;;4.67;;
3901;SDS011;1966;49.908;9.156;2023-05-19T01:47:08;7.70;;;4.40;;
3901;SDS011;1966;49.908;9.156;2023-05-19T01:52:07;8.60;;;4.70;;
3901;SDS011;1966;49.908;9.156;2023-05-19T01:57:08;9.43;;;4.97;;
3901;SDS011;1966;49.908;9.156;2023-05-19T02:02:12;6.57;;;3.60;;
3901;SDS011;1966;49.908;9.156;2023-05-19T02:07:19;4.53;;;3.00;;
3901;SDS011;1966;49.908;9.156;2023-05-19T02:12:23;3.80;;;3.23;;
3901;SDS011;1966;49.908;9.156;2023-05-19T02:17:25;7.90;;;3.57;;
3901;SDS011;1966;49.908;9.156;2023-05-19T02:22:26;3.20;;;2.90;;
3901;SDS011;1966;49.908;9.156;2023-05-19T02:27:25;3.50;;;3.20;;
3901;SDS011;1966;49.908;9.156;2023-05-19T02:32:26;3.90;;;2.90;;
3901;SDS011;1966;49.908;9.156;2023-05-19T02:37:25;5.17;;;3.03;;
3901;SDS011;1966;49.908;9.156;2023-05-19T02:42:25;3.57;;;3.07;;
3901;SDS011;1966;49.908;9.156;2023-05-19T02:47:25;4.93;;;3.50;;
3901;SDS011;1966;49.908;9.156;2023-05-19T02:52:25;3.90;;;3.30;;
3901;SDS011;1966;49.908;9.156;2023-05-19T02:57:24;4.87;;;3.77;;
3901;SDS011;1966;49.908;9.156;2023-05-19T03:02:23;4.97;;;3.67;;
3901;SDS011;1966;49.908;9.156;2023-05-19T03:07:24;6.00;;;3.80;;
3901;SDS011;1966;49.908;9.156;2023-05-19T03:12:23;9.60;;;3.77;;
3901;SDS011;1966;49.908;9.156;2023-05-19T03:17:23;4.47;;;3.33;;
3901;SDS011;1966;49.908;9.156;2023-05-19T03:22:22;7.57;;;4.07;;
3901;SDS011;1966;49.908;9.156;2023-05-19T03:27:23;6.73;;;3.83;;
3901;SDS011;1966;49.908;9.156;2023-05-19T03:32:22;5.77;;;3.93;;
3901;SDS011;1966;49.908;9.156;2023-05-19T03:37:22;4.23;;;3.80;;
3901;SDS011;1966;49.908;9.156;2023-05-19T03:42:22;4.33;;;3.30;;
3901;SDS011;1966;49.908;9.156;2023-05-19T03:47:21;4.53;;;3.10;;
3901;SDS011;1966;49.908;9.156;2023-05-19T03:52:21;3.50;;;3.20;;
3901;SDS011;1966;49.908;9.156;2023-05-19T03:57:20;5.20;;;3.40;;
3901;SDS011;1966;49.908;9.156;2023-05-19T04:02:21;4.93;;;3.50;;
3901;SDS011;1966;49.908;9.156;2023-05-19T04:07:20;6.33;;;3.80;;
3901;SDS011;1966;49.908;9.156;2023-05-19T04:12:19;6.47;;;4.10;;
3901;SDS011;1966;49.908;9.156;2023-05-19T04:17:18;7.97;;;3.73;;
3901;SDS011;1966;49.908;9.156;2023-05-19T04:22:20;6.50;;;3.50;;
3901;SDS011;1966;49.908;9.156;2023-05-19T04:27:19;7.63;;;4.20;;
3901;SDS011;1966;49.908;9.156;2023-05-19T04:32:18;8.07;;;3.80;;
3901;SDS011;1966;49.908;9.156;2023-05-19T04:37:19;8.07;;;3.83;;
3901;SDS011;1966;49.908;9.156;2023-05-19T04:42:18;7.87;;;3.73;;
3901;SDS011;1966;49.908;9.156;2023-05-19T04:47:18;5.07;;;3.90;;
3901;SDS011;1966;49.908;9.156;2023-05-19T04:52:19;8.63;;;4.57;;
3901;SDS011;1966;49.908;9.156;2023-05-19T04:57:19;11.83;;;5.23;;
3901;SDS011;1966;49.908;9.156;2023-05-19T05:02:18;5.90;;;3.90;;
3901;SDS011;1966;49.908;9.156;2023-05-19T05:07:19;7.63;;;4.40;;
3901;SDS011;1966;49.908;9.156;2023-05-19T05:12:19;5.90;;;4.50;;
3901;SDS011;1966;49.908;9.156;2023-05-19T05:17:19;4.50;;;4.00;;
3901;SDS011;1966;49.908;9.156;2023-05-19T05:22:20;5.73;;;4.00;;
3901;SDS011;1966;49.908;9.156;2023-05-19T05:27:19;7.20;;;5.10;;
3901;SDS011;1966;49.908;9.156;2023-05-19T05:32:19;7.23;;;4.80;;
3901;SDS011;1966;49.908;9.156;2023-05-19T05:37:19;5.80;;;4.57;;
3901;SDS011;1966;49.908;9.156;2023-05-19T05:42:19;8.10;;;4.30;;
3901;SDS011;1966;49.908;9.156;2023-05-19T05:47:18;7.67;;;4.53;;
3901;SDS011;1966;49.908;9.156;2023-05-19T05:52:17;7.23;;;4.40;;
3901;SDS011;1966;49.908;9.156;2023-05-19T05:57:20;4.80;;;3.97;;
3901;SDS011;1966;49.908;9.156;2023-05-19T06:02:20;4.90;;;4.33;;
3901;SDS011;1966;49.908;9.156;2023-05-19T06:07:19;6.53;;;4.10;;
3901;SDS011;1966;49.908;9.156;2023-05-19T06:12:20;9.73;;;3.80;;
3901;SDS011;1966;49.908;9.156;2023-05-19T06:17:20;8.80;;;4.17;;
3901;SDS011;1966;49.908;9.156;2023-05-19T06:22:19;4.87;;;4.10;;
3901;SDS011;1966;49.908;9.156;2023-05-19T06:27:18;8.40;;;4.13;;
3901;SDS011;1966;49.908;9.156;2023-05-19T06:32:19;6.70;;;4.00;;
3901;SDS011;1966;49.908;9.156;2023-05-19T06:37:19;4.70;;;3.23;;
3901;SDS011;1966;49.908;9.156;2023-05-19T06:42:18;5.40;;;3.73;;
3901;SDS011;1966;49.908;9.156;2023-05-19T06:47:20;7.57;;;4.13;;
3901;SDS011;1966;49.908;9.156;2023-05-19T06:52:20;10.30;;;4.97;;
3901;SDS011;1966;49.908;9.156;2023-05-19T06:57:19;7.10;;;4.20;;
3901;SDS011;1966;49.908;9.156;2023-05-19T07:02:18;8.00;;;3.90;;
3901;SDS011;1966;49.908;9.156;2023-05-19T07:07:19;10.10;;;4.67;;
3901;SDS011;1966;49.908;9.156;2023-05-19T07:12:18;6.33;;;4.00;;
3901;SDS011;1966;49.908;9.156;2023-05-19T07:17:17;4.80;;;3.60;;
3901;SDS011;1966;49.908;9.156;2023-05-19T07:22:16;4.43;;;3.37;;
3901;SDS011;1966;49.908;9.156;2023-05-19T07:27:17;5.47;;;3.33;;
3901;SDS011;1966;49.908;9.156;2023-05-19T07:32:16;5.50;;;3.13;;
3901;SDS011;1966;49.908;9.156;2023-05-19T07:37:16;7.80;;;3.60;;
3901;SDS011;1966;49.908;9.156;2023-05-19T07:42:15;6.77;;;3.10;;
3901;SDS011;1966;49.908;9.156;2023-05-19T07:47:15;7.53;;;4.67;;
3901;SDS011;1966;49.908;9.156;2023-05-19T07:52:15;9.43;;;3.30;;
3901;SDS011;1966;49.908;9.156;2023-05-19T07:57:15;4.57;;;3.40;;
3901;SDS011;1966;49.908;9.156;2023-05-19T08:02:17;10.17;;;3.20;;
3901;SDS011;1966;49.908;9.156;2023-05-19T08:07:16;4.83;;;3.30;;
3901;SDS011;1966;49.908;9.156;2023-05-19T08:12:15;5.57;;;3.03;;
3901;SDS011;1966;49.908;9.156;2023-05-19T08:17:16;5.60;;;3.20;;
3901;SDS011;1966;49.908;9.156;2023-05-19T08:22:15;9.60;;;3.60;;
3901;SDS011;1966;49.908;9.156;2023-05-19T08:27:14;5.93;;;2.70;;
3901;SDS011;1966;49.908;9.156;2023-05-19T08:32:14;12.37;;;2.50;;
3901;SDS011;1966;49.908;9.156;2023-05-19T08:37:15;5.97;;;2.70;;
3901;SDS011;1966;49.908;9.156;2023-05-19T08:42:14;3.33;;;2.60;;
3901;SDS011;1966;49.908;9.156;2023-05-19T08:47:14;5.00;;;2.43;;
3901;SDS011;1966;49.908;9.156;2023-05-19T08:52:16;3.30;;;2.57;;
3901;SDS011;1966;49.908;9.156;2023-05-19T08:57:17;3.40;;;2.57;;
3901;SDS011;1966;49.908;9.156;2023-05-19T09:02:17;6.87;;;3.03;;
3901;SDS011;1966;49.908;9.156;2023-05-19T09:07:17;4.30;;;2.60;;
3901;SDS011;1966;49.908;9.156;2023-05-19T09:12:18;5.30;;;2.73;;
3901;SDS011;1966;49.908;9.156;2023-05-19T09:17:17;5.50;;;2.93;;
3901;SDS011;1966;49.908;9.156;2023-05-19T09:22:18;5.17;;;3.07;;
3901;SDS011;1966;49.908;9.156;2023-05-19T09:27:20;5.70;;;2.63;;
3901;SDS011;1966;49.908;9.156;2023-05-19T09:32:23;4.53;;;2.60;;
3901;SDS011;1966;49.908;9.156;2023-05-19T09:37:23;9.67;;;2.80;;
3901;SDS011;1966;49.908;9.156;2023-05-19T09:42:25;3.87;;;2.70;;
3901;SDS011;1966;49.908;9.156;2023-05-19T09:47:26;5.80;;;2.77;;
3901;SDS011;1966;49.908;9.156;2023-05-19T09:52:27;4.37;;;2.47;;
3901;SDS011;1966;49.908;9.156;2023-05-19T09:57:26;4.73;;;2.77;;
3901;SDS011;1966;49.908;9.156;2023-05-19T10:02:26;3.20;;;2.57;;
3901;SDS011;1966;49.908;9.156;2023-05-19T10:07:26;8.40;;;2.57;;
3901;SDS011;1966;49.908;9.156;2023-05-19T10:12:26;7.50;;;3.00;;
3901;SDS011;1966;49.908;9.156;2023-05-19T10:17:26;5.63;;;2.60;;
3901;SDS011;1966;49.908;9.156;2023-05-19T10:22:25;4.10;;;2.50;;
3901;SDS011;1966;49.908;9.156;2023-05-19T10:27:27;3.43;;;2.40;;
3901;SDS011;1966;49.908;9.156;2023-05-19T10:32:28;5.17;;;2.97;;
3901;SDS011;1966;49.908;9.156;2023-05-19T10:37:30;5.00;;;2.70;;
3901;SDS011;1966;49.908;9.156;2023-05-19T10:42:35;4.10;;;2.40;;
3901;SDS011;1966;49.908;9.156;2023-05-19T10:47:36;8.27;;;2.70;;
3901;SDS011;1966;49.908;9.156;2023-05-19T10:52:35;3.03;;;2.37;;
3901;SDS011;1966;49.908;9.156;2023-05-19T10:57:36;2.50;;;2.03;;
3901;SDS011;1966;49.908;9.156;2023-05-19T11:02:36;3.23;;;2.27;;
3901;SDS011;1966;49.908;9.156;2023-05-19T11:07:36;3.33;;;2.40;;
3901;SDS011;1966;49.908;9.156;2023-05-19T11:12:40;3.87;;;2.10;;
3901;SDS011;1966;49.908;9.156;2023-05-19T11:17:41;5.60;;;2.67;;
3901;SDS011;1966;49.908;9.156;2023-05-19T11:22:40;3.37;;;2.00;;
3901;SDS011;1966;49.908;9.156;2023-05-19T11:27:41;1.70;;;1.60;;
3901;SDS011;1966;49.908;9.156;2023-05-19T11:32:46;3.13;;;1.90;;
3901;SDS011;1966;49.908;9.156;2023-05-19T11:37:45;3.33;;;2.10;;
3901;SDS011;1966;49.908;9.156;2023-05-19T11:42:46;3.77;;;2.20;;
3901;SDS011;1966;49.908;9.156;2023-05-19T11:47:45;4.30;;;2.20;;
3901;SDS011;1966;49.908;9.156;2023-05-19T11:52:44;3.07;;;2.00;;
3901;SDS011;1966;49.908;9.156;2023-05-19T11:57:51;2.60;;;2.40;;
3901;SDS011;1966;49.908;9.156;2023-05-19T12:02:56;6.70;;;2.40;;
3901;SDS011;1966;49.908;9.156;2023-05-19T12:07:56;3.73;;;2.20;;
3901;SDS011;1966;49.908;9.156;2023-05-19T12:12:58;3.37;;;2.37;;
3901;SDS011;1966;49.908;9.156;2023-05-19T12:17:58;3.80;;;2.07;;
3901;SDS011;1966;49.908;9.156;2023-05-19T12:22:57;3.90;;;2.63;;
3901;SDS011;1966;49.908;9.156;2023-05-19T12:27:59;3.13;;;2.40;;
3901;SDS011;1966;49.908;9.156;2023-05-19T12:33:00;4.30;;;2.20;;
3901;SDS011;1966;49.908;9.156;2023-05-19T12:38:02;2.40;;;2.20;;
3901;SDS011;1966;49.908;9.156;2023-05-19T12:43:03;4.03;;;2.60;;
3901;SDS011;1966;49.908;9.156;2023-05-19T12:48:03;2.53;;;2.33;;
3901;SDS011;1966;49.908;9.156;2023-05-19T12:53:06;8.10;;;3.97;;
3901;SDS011;1966;49.908;9.156;2023-05-19T12:58:07;2.50;;;2.30;;
3901;SDS011;1966;49.908;9.156;2023-05-19T13:03:14;4.50;;;2.50;;
3901;SDS011;1966;49.908;9.156;2023-05-19T13:08:14;3.00;;;2.17;;
3901;SDS011;1966;49.908;9.156;2023-05-19T13:13:15;2.77;;;2.37;;
3901;SDS011;1966;49.908;9.156;2023-05-19T13:18:15;2.53;;;2.33;;
3901;SDS011;1966;49.908;9.156;2023-05-19T13:23:14;2.90;;;2.27;;
3901;SDS011;1966;49.908;9.156;2023-05-19T13:28:15;7.40;;;4.33;;
3901;SDS011;1966;49.908;9.156;2023-05-19T13:33:14;4.20;;;2.90;;
3901;SDS011;1966;49.908;9.156;2023-05-19T13:38:14;3.33;;;2.67;;
3901;SDS011;1966;49.908;9.156;2023-05-19T13:43:13;2.63;;;2.43;;
3901;SDS011;1966;49.908;9.156;2023-05-19T13:48:13;5.10;;;2.83;;
3901;SDS011;1966;49.908;9.156;2023-05-19T13:53:13;6.27;;;2.40;;
3901;SDS011;1966;49.908;9.156;2023-05-19T13:58:12;2.57;;;2.37;;
3901;SDS011;1966;49.908;9.156;2023-05-19T14:03:15;3.70;;;2.60;;
3901;SDS011;1966;49.908;9.156;2023-05-19T14:08:17;7.00;;;3.27;;
3901;SDS011;1966;49.908;9.156;2023-05-19T14:13:16;6.10;;;3.70;;
3901;SDS011;1966;49.908;9.156;2023-05-19T14:18:17;4.03;;;2.57;;
3901;SDS011;1966;49.908;9.156;2023-05-19T14:23:16;2.13;;;1.93;;
3901;SDS011;1966;49.908;9.156;2023-05-19T14:28:17;3.40;;;2.57;;
3901;SDS011;1966;49.908;9.156;2023-05-19T14:33:17;5.87;;;2.97;;
3901;SDS011;1966;49.908;9.156;2023-05-19T14:38:17;9.53;;;2.77;;
3901;SDS011;1966;49.908;9.156;2023-05-19T14:43:16;8.90;;;2.90;;
3901;SDS011;1966;49.908;9.156;2023-05-19T14:48:16;10.20;;;4.33;;
3901;SDS011;1966;49.908;9.156;2023-05-19T14:53:16;3.47;;;3.10;;
3901;SDS011;1966;49.908;9.156;2023-05-19T14:58:15;5.03;;;2.60;;
3901;SDS011;1966;49.908;9.156;2023-05-19T15:03:15;4.13;;;2.73;;
3901;SDS011;1966;49.908;9.156;2023-05-19T15:08:14;4.20;;;2.83;;
3901;SDS011;1966;49.908;9.156;2023-05-19T15:13:15;4.57;;;2.60;;
3901;SDS011;1966;49.908;9.156;2023-05-19T15:18:15;5.53;;;2.97;;
3901;SDS011;1966;49.908;9.156;2023-05-19T15:23:15;3.43;;;2.70;;
3901;SDS011;1966;49.908;9.156;2023-05-19T15:28:16;3.23;;;2.73;;
3901;SDS011;1966;49.908;9.156;2023-05-19T15:33:15;3.10;;;2.73;;
3901;SDS011;1966;49.908;9.156;2023-05-19T15:38:14;3.37;;;2.60;;
3901;SDS011;1966;49.908;9.156;2023-05-19T15:43:17;2.50;;;2.30;;
3901;SDS011;1966;49.908;9.156;2023-05-19T15:48:17;2.77;;;2.57;;
3901;SDS011;1966;49.908;9.156;2023-05-19T15:53:17;4.10;;;2.70;;
3901;SDS011;1966;49.908;9.156;2023-05-19T15:58:18;2.93;;;2.50;;
3901;SDS011;1966;49.908;9.156;2023-05-19T16:03:17;4.63;;;2.87;;
3901;SDS011;1966;49.908;9.156;2023-05-19T16:08:17;5.43;;;3.00;;
3901;SDS011;1966;49.908;9.156;2023-05-19T16:13:16;3.20;;;2.90;;
3901;SDS011;1966;49.908;9.156;2023-05-19T16:18:17;3.37;;;2.40;;
3901;SDS011;1966;49.908;9.156;2023-05-19T16:23:16;4.27;;;2.63;;
3901;SDS011;1966;49.908;9.156;2023-05-19T16:28:15;4.00;;;3.07;;
3901;SDS011;1966;49.908;9.156;2023-05-19T16:33:16;5.10;;;2.60;;
3901;SDS011;1966;49.908;9.156;2023-05-19T16:38:15;3.60;;;2.45;;
3901;SDS011;1966;49.908;9.156;2023-05-19T16:43:14;3.07;;;2.60;;
3901;SDS011;1966;49.908;9.156;2023-05-19T16:48:14;4.17;;;3.10;;
3901;SDS011;1966;49.908;9.156;2023-05-19T16:53:14;2.87;;;2.67;;
3901;SDS011;1966;49.908;9.156;2023-05-19T16:58:14;2.63;;;2.40;;
3901;SDS011;1966;49.908;9.156;2023-05-19T17:03:13;4.27;;;2.87;;
3901;SDS011;1966;49.908;9.156;2023-05-19T17:08:12;4.07;;;3.67;;
3901;SDS011;1966;49.908;9.156;2023-05-19T17:13:13;2.93;;;2.63;;
3901;SDS011;1966;49.908;9.156;2023-05-19T17:18:12;7.03;;;2.90;;
3901;SDS011;1966;49.908;9.156;2023-05-19T17:23:12;2.67;;;2.47;;
3901;SDS011;1966;49.908;9.156;2023-05-19T17:28:13;3.77;;;3.00;;
3901;SDS011;1966;49.908;9.156;2023-05-19T17:33:13;3.07;;;2.50;;
3901;SDS011;1966;49.908;9.156;2023-05-19T17:38:12;3.27;;;2.70;;
3901;SDS011;1966;49.908;9.156;2023-05-19T17:43:11;2.67;;;2.43;;
3901;SDS011;1966;49.908;9.156;2023-05-19T17:48:12;3.00;;;2.70;;
3901;SDS011;1966;49.908;9.156;2023-05-19T17:53:11;3.83;;;3.00;;
3901;SDS011;1966;49.908;9.156;2023-05-19T17:58:11;3.07;;;2.77;;
3901;SDS011;1966;49.908;9.156;2023-05-19T18:03:12;3.03;;;2.83;;
3901;SDS011;1966;49.908;9.156;2023-05-19T18:08:11;5.10;;;2.60;;
3901;SDS011;1966;49.908;9.156;2023-05-19T18:13:11;4.33;;;2.80;;
3901;SDS011;1966;49.908;9.156;2023-05-19T18:18:12;4.63;;;2.87;;
3901;SDS011;1966;49.908;9.156;2023-05-19T18:23:11;3.70;;;2.77;;
3901;SDS011;1966;49.908;9.156;2023-05-19T18:28:11;6.50;;;4.33;;
3901;SDS011;1966;49.908;9.156;2023-05-19T18:33:10;6.50;;;3.17;;
3901;SDS011;1966;49.908;9.156;2023-05-19T18:38:10;5.60;;;3.00;;
3901;SDS011;1966;49.908;9.156;2023-05-19T18:43:10;3.80;;;3.50;;
3901;SDS011;1966;49.908;9.156;2023-05-19T18:48:09;3.97;;;3.47;;
3901;SDS011;1966;49.908;9.156;2023-05-19T18:53:08;3.90;;;3.47;;
3901;SDS011;1966;49.908;9.156;2023-05-19T18:58:09;5.30;;;3.40;;
3901;SDS011;1966;49.908;9.156;2023-05-19T19:03:08;3.30;;;3.00;;
3901;SDS011;1966;49.908;9.156;2023-05-19T19:08:08;3.07;;;2.83;;
3901;SDS011;1966;49.908;9.156;2023-05-19T19:13:09;6.10;;;2.47;;
3901;SDS011;1966;49.908;9.156;2023-05-19T19:18:08;5.90;;;3.07;;
3901;SDS011;1966;49.908;9.156;2023-05-19T19:23:08;4.43;;;2.83;;
3901;SDS011;1966;49.908;9.156;2023-05-19T19:28:08;3.53;;;2.73;;
3901;SDS011;1966;49.908;9.156;2023-05-19T19:33:08;3.07;;;2.83;;
3901;SDS011;1966;49.908;9.156;2023-05-19T19:38:08;4.40;;;2.90;;
3901;SDS011;1966;49.908;9.156;2023-05-19T19:43:08;3.70;;;2.80;;
3901;SDS011;1966;49.908;9.156;2023-05-19T19:48:08;7.80;;;2.87;;
3901;SDS011;1966;49.908;9.156;2023-05-19T19:53:08;5.30;;;3.20;;
3901;SDS011;1966;49.908;9.156;2023-05-19T19:58:09;3.20;;;2.93;;
3901;SDS011;1966;49.908;9.156;2023-05-19T20:03:08;6.97;;;3.30;;
3901;SDS011;1966;49.908;9.156;2023-05-19T20:08:07;3.83;;;3.20;;
3901;SDS011;1966;49.908;9.156;2023-05-19T20:13:08;4.37;;;3.47;;
3901;SDS011;1966;49.908;9.156;2023-05-19T20:18:07;5.30;;;3.20;;
3901;SDS011;1966;49.908;9.156;2023-05-19T20:23:07;3.53;;;3.13;;
3901;SDS011;1966;49.908;9.156;2023-05-19T20:28:06;4.60;;;2.93;;
3901;SDS011;1966;49.908;9.156;2023-05-19T20:33:07;3.10;;;2.80;;
3901;SDS011;1966;49.908;9.156;2023-05-19T20:38:06;3.50;;;3.20;;
3901;SDS011;1966;49.908;9.156;2023-05-19T20:43:05;4.10;;;2.73;;
3901;SDS011;1966;49.908;9.156;2023-05-19T20:48:04;5.87;;;3.20;;
3901;SDS011;1966;49.908;9.156;2023-05-19T20:53:05;5.57;;;3.10;;
3901;SDS011;1966;49.908;9.156;2023-05-19T20:58:05;3.70;;;3.20;;
3901;SDS011;1966;49.908;9.156;2023-05-19T21:03:04;3.83;;;3.43;;
3901;SDS011;1966;49.908;9.156;2023-05-19T21:08:03;4.53;;;3.63;;
3901;SDS011;1966;49.908;9.156;2023-05-19T21:13:04;4.37;;;3.20;;
3901;SDS011;1966;49.908;9.156;2023-05-19T21:18:03;3.50;;;3.20;;
3901;SDS011;1966;49.908;9.156;2023-05-19T21:23:03;4.20;;;3.27;;
3901;SDS011;1966;49.908;9.156;2023-05-19T21:28:02;4.60;;;3.87;;
3901;SDS011;1966;49.908;9.156;2023-05-19T21:33:03;4.23;;;3.30;;
3901;SDS011;1966;49.908;9.156;2023-05-19T21:38:02;3.43;;;3.13;;
3901;SDS011;1966;49.908;9.156;2023-05-19T21:43:01;4.57;;;3.67;;
3901;SDS011;1966;49.908;9.156;2023-05-19T21:48:02;4.63;;;4.20;;
3901;SDS011;1966;49.908;9.156;2023-05-19T21:53:02;6.63;;;4.03;;
3901;SDS011;1966;49.908;9.156;2023-05-19T21:58:01;4.80;;;3.10;;
3901;SDS011;1966;49.908;9.156;2023-05-19T22:03:00;4.60;;;3.90;;
3901;SDS011;1966;49.908;9.156;2023-05-19T22:08:01;3.70;;;3.30;;
3901;SDS011;1966;49.908;9.156;2023-05-19T22:13:00;4.80;;;3.20;;
3901;SDS011;1966;49.908;9.156;2023-05-19T22:17:59;3.60;;;3.30;;
3901;SDS011;1966;49.908;9.156;2023-05-19T22:23:00;3.40;;;3.10;;
3901;SDS011;1966;49.908;9.156;2023-05-19T22:28:00;4.77;;;3.40;;
3901;SDS011;1966;49.908;9.156;2023-05-19T22:32:59;3.57;;;3.27;;
3901;SDS011;1966;49.908;9.156;2023-05-19T22:38:00;3.90;;;3.47;;
3901;SDS011;1966;49.908;9.156;2023-05-19T22:42:59;6.10;;;3.73;;
3901;SDS011;1966;49.908;9.156;2023-05-19T22:47:58;3.63;;;3.33;;
3901;SDS011;1966;49.908;9.156;2023-05-19T22:52:58;4.27;;;3.30;;
3901;SDS011;1966;49.908;9.156;2023-05-19T22:57:59;4.03;;;3.27;;
3901;SDS011;1966;49.908;9.156;2023-05-19T23:02:58;5.80;;;3.60;;
3901;SDS011;1966;49.908;9.156;2023-05-19T23:07:57;4.73;;;3.23;;
3901;SDS011;1966;49.908;9.156;2023-05-19T23:12:56;3.30;;;3.00;;
3901;SDS011;1966;49.908;9.156;2023-05-19T23:17:57;7.03;;;3.40;;
3901;SDS011;1966;49.908;9.156;2023-05-19T23:22:58;4.57;;;3.30;;
3901;SDS011;1966;49.908;9.156;2023-05-19T23:27:57;3.67;;;3.37;;
3901;SDS011;1966;49.908;9.156;2023-05-19T23:32:57;4.40;;;3.43;;
3901;SDS011;1966;49.908;9.156;2023-05-19T23:37:57;4.13;;;3.40;;
3901;SDS011;1966;49.908;9.156;2023-05-19T23:42:56;5.00;;;3.30;;
3901;SDS011;1966;49.908;9.156;2023-05-19T23:47:55;4.97;;;3.50;;
3901;SDS011;1966;49.908;9.156;2023-05-19T23:52:56;4.70;;;3.17;;
3901;SDS011;1966;49.908;9.156;2023-05-19T23:57:55;6.03;;;3.67;;
